Time;durP1;ratioP1;P1;durP2;ratioP2;P2;SDS_P1;SDS_P2;PMS_P1;PMS_P2;Temp;Humidity;BMP_temperature;BMP_pressure;BME280_temperature;BME280_humidity;BME280_pressure;Samples;Min_cycle;Max_cycle;Signal;HPM_P1;HPM_P2
2021/09/20 00:01:57;;;;;;;14.07;11.10;;;;;;;16.63;76.04;94929.06;5023236;28;20858;-71
2021/09/20 00:04:24;;;;;;;17.53;12.43;;;;;;;16.40;76.39;94932.63;5030782;28;20440;-74
2021/09/20 00:06:51;;;;;;;14.07;11.73;;;;;;;16.59;75.68;94930.72;5030638;28;20436;-71
2021/09/20 00:09:18;;;;;;;15.27;11.53;;;;;;;16.55;75.97;94924.44;5030290;28;20510;-71
2021/09/20 00:11:45;;;;;;;16.43;12.33;;;;;;;16.75;74.97;94918.00;5030016;28;20470;-71
2021/09/20 00:14:12;;;;;;;17.87;11.73;;;;;;;16.82;74.31;94923.69;5030652;28;20539;-71
2021/09/20 00:16:39;;;;;;;18.07;11.97;;;;;;;16.88;73.64;94915.34;5029894;28;20440;-73
2021/09/20 00:19:06;;;;;;;12.80;10.97;;;;;;;16.95;73.93;94923.69;5030507;28;20452;-73
2021/09/20 00:21:33;;;;;;;14.03;11.37;;;;;;;17.02;73.74;94926.72;5016203;28;20464;-71
2021/09/20 00:24:00;;;;;;;15.90;10.90;;;;;;;16.97;72.93;94900.34;5027848;28;20459;-71
2021/09/20 00:26:27;;;;;;;13.17;10.43;;;;;;;17.16;73.01;94913.50;5029892;28;20507;-71
2021/09/20 00:28:54;;;;;;;18.37;10.70;;;;;;;17.08;72.71;94912.31;5029779;28;20447;-73
2021/09/20 00:31:20;;;;;;;14.00;10.67;;;;;;;17.22;72.91;94918.38;5030155;28;20936;-73
2021/09/20 00:33:47;;;;;;;11.17;9.30;;;;;;;17.08;72.60;94896.44;5030079;28;20854;-71
2021/09/20 00:36:14;;;;;;;18.67;10.33;;;;;;;17.26;71.91;94905.34;5029552;28;20443;-73
2021/09/20 00:38:41;;;;;;;18.50;10.10;;;;;;;17.12;72.05;94897.41;5030660;28;20444;-73
2021/09/20 00:41:08;;;;;;;14.33;9.80;;;;;;;17.06;72.70;94901.22;5029869;28;20496;-71
2021/09/20 00:43:36;;;;;;;20.13;10.40;;;;;;;16.87;73.02;94892.63;5024604;28;21142;-72
2021/09/20 00:46:07;;;;;;;13.33;10.40;;;;;;;16.93;73.33;94909.97;5026596;28;20814;-73
2021/09/20 00:48:34;;;;;;;13.80;10.20;;;;;;;16.72;73.88;94887.63;5021765;28;20531;-72
2021/09/20 00:51:03;;;;;;;16.90;10.80;;;;;;;16.88;73.95;94901.31;5025504;28;20448;-71
2021/09/20 00:53:30;;;;;;;15.17;10.57;;;;;;;16.60;74.54;94897.91;5020354;28;20449;-72
2021/09/20 00:55:58;;;;;;;15.97;9.90;;;;;;;16.63;74.80;94894.66;5025945;28;20443;-71
2021/09/20 00:58:25;;;;;;;13.07;9.00;;;;;;;16.76;74.07;94896.53;5026205;28;20505;-74
2021/09/20 01:00:52;;;;;;;14.67;9.73;;;;;;;16.80;73.24;94897.53;5018518;28;20439;-73
2021/09/20 01:03:19;;;;;;;12.23;9.77;;;;;;;16.93;72.26;94878.19;5029958;28;20436;-73
2021/09/20 01:05:46;;;;;;;16.10;9.53;;;;;;;17.03;71.93;94899.19;5030001;28;20903;-73
2021/09/20 01:08:13;;;;;;;17.00;10.50;;;;;;;16.92;72.64;94887.22;5030508;28;20865;-70
2021/09/20 01:10:40;;;;;;;15.90;10.03;;;;;;;16.92;73.04;94903.09;5030188;28;20462;-74
2021/09/20 01:13:08;;;;;;;13.13;10.23;;;;;;;16.99;72.46;94900.84;5027226;28;21224;-71
2021/09/20 01:15:35;;;;;;;13.17;9.27;;;;;;;17.04;71.80;94908.69;5028823;28;20444;-70
2021/09/20 01:18:02;;;;;;;14.23;9.10;;;;;;;16.96;72.17;94893.50;5029366;28;20440;-69
2021/09/20 01:20:29;;;;;;;12.57;9.53;;;;;;;17.04;71.39;94902.63;5029950;28;20443;-72
2021/09/20 01:23:00;;;;;;;14.90;9.50;;;;;;;17.05;71.79;94907.63;5030619;28;21059;-72
2021/09/20 01:25:28;;;;;;;16.43;11.60;;;;;;;17.01;71.17;94900.53;5030923;28;20456;-72
2021/09/20 01:27:55;;;;;;;16.23;9.80;;;;;;;16.98;71.26;94896.66;5029903;28;20443;-70
2021/09/20 01:30:23;;;;;;;11.40;9.27;;;;;;;17.13;70.78;94909.56;5029391;28;21310;-72
2021/09/20 01:32:50;;;;;;;15.67;8.80;;;;;;;17.10;70.97;94910.16;5029676;28;20471;-74
2021/09/20 01:35:22;;;;;;;16.03;9.57;;;;;;;17.12;70.35;94912.50;5029711;28;20909;-71
2021/09/20 01:37:49;;;;;;;15.57;8.67;;;;;;;17.03;70.37;94907.13;5029829;28;20467;-72
2021/09/20 01:40:17;;;;;;;13.63;9.23;;;;;;;17.09;70.51;94908.59;5016417;28;20443;-73
2021/09/20 01:42:44;;;;;;;13.30;9.70;;;;;;;16.97;70.69;94895.06;5024848;28;20473;-72
2021/09/20 01:45:11;;;;;;;10.10;8.70;;;;;;;17.03;71.18;94899.19;5027905;28;20526;-71
2021/09/20 01:47:39;;;;;;;13.27;9.13;;;;;;;16.94;70.30;94890.38;5029219;28;20478;-71
2021/09/20 01:50:08;;;;;;;15.67;10.63;;;;;;;16.93;70.65;94899.38;5024678;28;20442;-71
2021/09/20 01:52:36;;;;;;;13.03;9.57;;;;;;;16.72;71.27;94871.75;5021838;28;20444;-73
2021/09/20 01:55:05;;;;;;;11.97;9.20;;;;;;;16.84;71.13;94897.72;5029760;28;20435;-77
2021/09/20 01:57:33;;;;;;;9.90;8.87;;;;;;;16.70;71.39;94907.50;5029578;28;20435;-75
2021/09/20 02:00:01;;;;;;;13.07;9.37;;;;;;;16.49;72.83;94904.44;5031564;28;20447;-73
2021/09/20 02:02:37;;;;;;;12.67;9.50;;;;;;;16.54;72.09;94896.41;5032781;28;20566;-75
2021/09/20 02:05:06;;;;;;;15.97;10.70;;;;;;;16.63;71.52;94899.94;5032974;28;20526;-75
2021/09/20 02:07:33;;;;;;;15.33;9.60;;;;;;;16.61;71.58;94904.75;5032714;28;20427;-74
2021/09/20 02:10:05;;;;;;;12.50;9.53;;;;;;;16.57;71.95;94885.25;5033396;28;20479;-74
2021/09/20 02:12:32;;;;;;;20.57;9.67;;;;;;;16.69;71.05;94903.28;5032851;28;20452;-71
2021/09/20 02:14:59;;;;;;;14.07;9.13;;;;;;;16.60;71.29;94900.56;5033280;28;20451;-72
2021/09/20 02:17:26;;;;;;;14.17;9.90;;;;;;;16.35;71.69;94893.00;5032049;28;20448;-72
2021/09/20 02:19:53;;;;;;;14.23;10.23;;;;;;;16.15;73.37;94875.63;5032693;28;20497;-73
2021/09/20 02:22:19;;;;;;;16.00;9.63;;;;;;;16.27;72.96;94874.41;5030096;28;20467;-70
2021/09/20 02:24:47;;;;;;;17.13;9.23;;;;;;;16.12;73.55;94876.22;5030822;28;20443;-76
2021/09/20 02:27:13;;;;;;;15.87;8.57;;;;;;;16.02;73.66;94857.13;5032726;28;20436;-73
2021/09/20 02:29:42;;;;;;;18.17;8.77;;;;;;;16.06;73.62;94837.72;5032129;28;20436;-72
2021/09/20 02:32:09;;;;;;;17.83;9.00;;;;;;;16.07;72.67;94828.75;5032642;28;20448;-72
2021/09/20 02:34:36;;;;;;;11.63;8.20;;;;;;;16.21;72.09;94839.31;5031681;28;20601;-72
2021/09/20 02:37:03;;;;;;;11.07;7.90;;;;;;;16.09;72.77;94836.38;5031946;28;20431;-75
2021/09/20 02:39:30;;;;;;;11.80;8.80;;;;;;;16.06;72.74;94834.28;5032118;28;20455;-73
2021/09/20 02:41:57;;;;;;;14.00;8.10;;;;;;;15.99;73.09;94825.97;5031726;28;20478;-74
2021/09/20 02:44:24;;;;;;;13.27;8.13;;;;;;;15.95;73.58;94833.69;5022612;28;20887;-71
2021/09/20 02:46:51;;;;;;;15.97;9.50;;;;;;;15.90;73.59;94843.56;5028230;28;20440;-70
2021/09/20 02:49:18;;;;;;;12.17;8.23;;;;;;;15.90;73.97;94840.91;5025486;28;20444;-71
2021/09/20 02:51:44;;;;;;;13.53;8.60;;;;;;;15.99;73.18;94857.66;5022458;28;20472;-73
2021/09/20 02:54:12;;;;;;;11.47;9.30;;;;;;;16.17;72.48;94854.97;5016417;28;20449;-71
2021/09/20 02:56:42;;;;;;;14.13;8.97;;;;;;;16.12;72.11;94855.09;5023509;28;20884;-73
2021/09/20 02:59:09;;;;;;;10.83;8.50;;;;;;;15.86;72.86;94814.28;5023782;28;20443;-72
2021/09/20 03:01:36;;;;;;;12.83;7.97;;;;;;;16.01;72.79;94858.97;5018821;28;20447;-70
2021/09/20 03:04:03;;;;;;;11.60;9.27;;;;;;;16.11;72.54;94865.94;5031266;28;20992;-70
2021/09/20 03:06:30;;;;;;;12.77;9.13;;;;;;;15.97;73.18;94862.47;5031644;28;20440;-71
2021/09/20 03:08:57;;;;;;;13.43;9.27;;;;;;;16.10;72.57;94874.94;5031696;28;20473;-73
2021/09/20 03:11:23;;;;;;;12.53;9.07;;;;;;;16.01;73.00;94866.09;5031036;28;20463;-72
2021/09/20 03:13:50;;;;;;;15.57;10.03;;;;;;;16.08;72.63;94861.22;5029361;28;20512;-71
2021/09/20 03:16:17;;;;;;;10.83;9.50;;;;;;;16.05;73.17;94862.59;5044846;28;20439;-76
2021/09/20 03:18:44;;;;;;;16.23;9.43;;;;;;;16.02;72.86;94872.97;5031247;28;20957;-74
2021/09/20 03:21:11;;;;;;;12.27;9.17;;;;;;;16.10;73.49;94864.38;5031472;28;20966;-76
2021/09/20 03:23:38;;;;;;;14.17;8.77;;;;;;;16.12;72.58;94873.59;5028925;28;20510;-73
2021/09/20 03:26:10;;;;;;;14.90;9.57;;;;;;;16.23;72.16;94874.19;5031664;28;20475;-75
2021/09/20 03:28:36;;;;;;;9.80;8.53;;;;;;;16.14;73.31;94871.44;5030602;28;20821;-69
2021/09/20 03:31:03;;;;;;;11.20;9.37;;;;;;;16.09;73.53;94870.72;5031741;28;20486;-72
2021/09/20 03:33:30;;;;;;;11.10;8.17;;;;;;;16.03;73.74;94856.81;5031274;28;20526;-70
2021/09/20 03:35:57;;;;;;;15.33;8.97;;;;;;;16.13;73.33;94858.47;5031022;28;20517;-74
2021/09/20 03:38:24;;;;;;;15.47;9.13;;;;;;;16.13;74.12;94863.78;5030718;28;20447;-73
2021/09/20 03:40:51;;;;;;;16.67;10.60;;;;;;;16.05;74.13;94861.81;5024617;28;20460;-71
2021/09/20 03:43:18;;;;;;;15.97;9.40;;;;;;;15.98;75.04;94858.75;5019329;28;20473;-72
2021/09/20 03:45:45;;;;;;;18.13;10.33;;;;;;;16.17;74.01;94860.28;5015631;28;20445;-73
2021/09/20 03:48:12;;;;;;;14.20;10.47;;;;;;;16.13;73.63;94869.06;5018116;28;20970;-74
2021/09/20 03:50:38;;;;;;;12.83;9.33;;;;;;;16.17;72.93;94888.56;5026633;28;20981;-73
2021/09/20 03:53:05;;;;;;;15.97;10.73;;;;;;;16.05;74.35;94872.38;5024359;28;20955;-75
2021/09/20 03:55:32;;;;;;;20.13;10.53;;;;;;;16.04;74.26;94871.59;5030734;28;20432;-73
2021/09/20 03:57:59;;;;;;;24.93;10.03;;;;;;;15.97;74.25;94859.81;5022234;28;20440;-72
2021/09/20 04:00:26;;;;;;;16.10;10.07;;;;;;;15.84;75.24;94857.91;5024631;28;20821;-72
2021/09/20 04:02:53;;;;;;;21.70;10.47;;;;;;;15.92;74.48;94849.34;5027720;28;20863;-72
2021/09/20 04:05:21;;;;;;;15.63;10.13;;;;;;;15.87;75.24;94854.72;5030094;28;20468;-73
2021/09/20 04:07:48;;;;;;;15.43;10.30;;;;;;;15.98;74.90;94856.13;5031685;28;20444;-71
2021/09/20 04:10:15;;;;;;;16.07;10.30;;;;;;;16.12;74.88;94867.50;5034866;28;20471;-72
2021/09/20 04:12:42;;;;;;;15.63;10.80;;;;;;;16.02;74.35;94872.97;5032484;28;20444;-73
2021/09/20 04:15:10;;;;;;;18.00;11.50;;;;;;;16.17;74.14;94875.34;5030818;28;20800;-72
2021/09/20 04:17:37;;;;;;;14.13;10.50;;;;;;;16.03;74.37;94864.75;5030005;28;20452;-70
2021/09/20 04:20:05;;;;;;;16.40;11.47;;;;;;;16.11;74.19;94869.34;5029756;28;20900;-71
2021/09/20 04:22:32;;;;;;;14.30;10.80;;;;;;;16.07;74.24;94872.88;5029808;28;20530;-73
2021/09/20 04:24:59;;;;;;;12.47;10.47;;;;;;;16.17;73.70;94849.69;5030535;28;20447;-72
2021/09/20 04:27:27;;;;;;;21.17;11.50;;;;;;;16.04;74.41;94861.03;5030404;28;20497;-72
2021/09/20 04:29:54;;;;;;;17.43;11.73;;;;;;;15.97;74.73;94843.97;5030097;28;20448;-70
2021/09/20 04:32:21;;;;;;;24.53;12.50;;;;;;;16.15;75.48;94865.06;5029389;28;20443;-70
2021/09/20 04:34:48;;;;;;;16.70;12.73;;;;;;;16.21;74.83;94877.13;5028671;28;20480;-70
2021/09/20 04:37:17;;;;;;;17.80;12.67;;;;;;;16.22;74.97;94872.63;5029520;28;20440;-72
2021/09/20 04:39:45;;;;;;;20.30;11.80;;;;;;;16.22;75.19;94878.69;5028948;28;20436;-72
2021/09/20 04:42:13;;;;;;;14.17;12.67;;;;;;;16.19;74.54;94870.56;5029075;28;20467;-71
2021/09/20 04:44:40;;;;;;;33.90;27.40;;;;;;;16.32;74.56;94867.16;5030277;28;20942;-73
2021/09/20 04:47:08;;;;;;;40.00;28.63;;;;;;;16.33;75.05;94866.06;5030473;28;20447;-74
2021/09/20 04:49:35;;;;;;;49.43;34.93;;;;;;;16.37;74.68;94867.06;5009889;28;20472;-74
2021/09/20 04:52:02;;;;;;;58.30;36.87;;;;;;;16.45;75.63;94866.41;5022026;28;20484;-74
2021/09/20 04:54:29;;;;;;;38.80;25.40;;;;;;;16.43;75.48;94868.53;5025718;28;20448;-76
2021/09/20 04:56:56;;;;;;;25.00;17.83;;;;;;;16.38;74.93;94866.00;5020605;28;20981;-69
2021/09/20 04:59:25;;;;;;;19.87;15.57;;;;;;;16.37;75.62;94875.00;5029968;28;20965;-74
2021/09/20 05:01:51;;;;;;;18.87;13.87;;;;;;;16.58;74.40;94886.81;5030340;28;20443;-72
2021/09/20 05:04:19;;;;;;;24.03;13.53;;;;;;;16.57;74.04;94895.06;5029729;28;20526;-75
2021/09/20 05:06:48;;;;;;;19.30;13.47;;;;;;;16.46;74.43;94883.06;5030047;28;20475;-74
2021/09/20 05:09:16;;;;;;;30.90;15.07;;;;;;;16.56;74.50;94902.19;5029575;28;20446;-72
2021/09/20 05:11:43;;;;;;;17.33;14.17;;;;;;;16.24;74.52;94876.53;5030373;28;21299;-75
2021/09/20 05:14:10;;;;;;;27.93;16.20;;;;;;;16.66;73.74;94899.34;5029777;28;20446;-71
2021/09/20 05:16:37;;;;;;;27.40;17.13;;;;;;;16.47;74.54;94901.31;5027071;28;20562;-74
2021/09/20 05:19:04;;;;;;;25.67;18.60;;;;;;;16.44;75.03;94917.72;5023283;28;20510;-72
2021/09/20 05:21:31;;;;;;;28.10;18.50;;;;;;;16.52;74.55;94914.44;5021374;28;20465;-72
2021/09/20 05:23:58;;;;;;;27.93;18.57;;;;;;;16.42;74.88;94908.50;5023284;28;20507;-70
2021/09/20 05:26:25;;;;;;;26.33;18.27;;;;;;;16.50;74.32;94906.00;5026508;28;20490;-70
2021/09/20 05:28:52;;;;;;;36.10;17.57;;;;;;;16.38;74.97;94913.59;5021105;28;20445;-72
2021/09/20 05:31:18;;;;;;;24.57;16.83;;;;;;;16.53;74.56;94926.56;5023139;28;20448;-73
2021/09/20 05:33:45;;;;;;;25.60;15.03;;;;;;;16.29;74.40;94903.97;5029204;28;20474;-73
2021/09/20 05:36:12;;;;;;;26.10;14.40;;;;;;;16.39;74.44;94904.59;5021995;28;20525;-71
2021/09/20 05:38:39;;;;;;;33.37;14.50;;;;;;;16.72;73.74;94918.56;5031992;28;20893;-74
2021/09/20 05:41:06;;;;;;;26.50;15.27;;;;;;;16.49;74.05;94904.44;5025562;28;21192;-73
2021/09/20 05:43:33;;;;;;;22.53;14.83;;;;;;;16.50;74.29;94908.66;5031914;28;21210;-75
2021/09/20 05:46:00;;;;;;;25.90;15.53;;;;;;;16.47;74.57;94911.88;5032746;28;20440;-73
2021/09/20 05:48:27;;;;;;;25.73;16.03;;;;;;;16.26;75.72;94901.91;5033114;28;20456;-75
2021/09/20 05:50:55;;;;;;;34.57;17.30;;;;;;;16.28;75.50;94911.13;5018589;28;20452;-74
2021/09/20 05:53:22;;;;;;;29.70;16.70;;;;;;;16.35;75.39;94908.13;5032830;28;20462;-73
2021/09/20 05:55:49;;;;;;;28.83;16.97;;;;;;;16.25;75.57;94919.63;5032464;28;20439;-74
2021/09/20 05:58:16;;;;;;;32.87;18.33;;;;;;;16.33;74.63;94905.72;5025732;28;20467;-74
2021/09/20 06:00:43;;;;;;;32.00;18.40;;;;;;;16.30;75.98;94916.09;5013093;28;20974;-73
2021/09/20 06:03:11;;;;;;;29.47;18.33;;;;;;;16.39;74.64;94896.66;5020597;28;20479;-73
2021/09/20 06:05:38;;;;;;;35.17;19.57;;;;;;;16.16;76.60;94908.94;5032582;28;20813;-73
2021/09/20 06:08:06;;;;;;;31.20;19.13;;;;;;;16.38;75.25;94900.38;5032483;28;20517;-74
2021/09/20 06:10:35;;;;;;;34.83;19.47;;;;;;;16.25;76.28;94903.78;5032538;28;20957;-75
2021/09/20 06:13:04;;;;;;;38.20;19.50;;;;;;;16.19;76.27;94904.91;5031845;28;21051;-72
2021/09/20 06:15:31;;;;;;;36.03;20.53;;;;;;;16.10;77.96;94898.72;5032914;28;20444;-73
2021/09/20 06:17:58;;;;;;;32.73;20.57;;;;;;;15.97;77.83;94912.66;5032367;28;20482;-73
2021/09/20 06:20:25;;;;;;;33.40;19.90;;;;;;;16.13;77.40;94895.50;5031874;28;20451;-72
2021/09/20 06:22:52;;;;;;;41.37;21.20;;;;;;;16.43;76.56;94910.88;5031765;28;20521;-71
2021/09/20 06:25:19;;;;;;;40.13;20.60;;;;;;;16.48;76.14;94897.56;5032735;28;20443;-71
2021/09/20 06:27:47;;;;;;;35.83;20.90;;;;;;;16.40;75.70;94886.88;5031347;28;20446;-72
2021/09/20 06:30:14;;;;;;;40.50;21.17;;;;;;;16.58;75.77;94888.69;5032491;28;20519;-71
2021/09/20 06:32:42;;;;;;;40.70;20.60;;;;;;;16.49;75.81;94904.44;5031894;28;20460;-74
2021/09/20 06:35:10;;;;;;;36.17;21.93;;;;;;;16.42;76.66;94909.31;5032175;28;20436;-73
2021/09/20 06:37:37;;;;;;;36.87;23.23;;;;;;;16.55;75.37;94897.97;5031728;28;20505;-72
2021/09/20 06:40:06;;;;;;;28.70;21.03;;;;;;;16.61;75.53;94906.59;5031660;28;20941;-73
2021/09/20 06:42:33;;;;;;;36.83;20.83;;;;;;;16.77;75.33;94919.25;5030908;28;20826;-72
2021/09/20 06:45:02;;;;;;;31.33;21.17;;;;;;;16.67;74.45;94921.31;5031818;28;20503;-73
2021/09/20 06:47:29;;;;;;;39.67;20.73;;;;;;;16.71;74.60;94927.59;5015611;28;20532;-73
2021/09/20 06:49:55;;;;;;;39.57;20.93;;;;;;;16.66;75.45;94925.81;5012215;28;20433;-72
2021/09/20 06:52:22;;;;;;;38.83;21.47;;;;;;;16.65;75.49;94907.59;5012350;28;20476;-75
2021/09/20 06:54:50;;;;;;;31.93;20.80;;;;;;;16.75;75.41;94913.47;5032216;28;20443;-74
2021/09/20 06:57:17;;;;;;;37.13;21.23;;;;;;;16.82;75.55;94913.88;5031670;28;20456;-73
2021/09/20 06:59:44;;;;;;;36.30;21.43;;;;;;;17.00;74.53;94923.59;5017676;28;20447;-73
2021/09/20 07:02:11;;;;;;;35.53;22.27;;;;;;;16.62;76.07;94914.28;5020913;28;20480;-72
2021/09/20 07:04:38;;;;;;;31.73;21.20;;;;;;;16.85;75.44;94913.31;5032167;28;20486;-73
2021/09/20 07:07:05;;;;;;;37.07;21.80;;;;;;;16.69;75.44;94892.72;5031356;28;20439;-73
2021/09/20 07:09:32;;;;;;;38.00;22.80;;;;;;;16.87;75.82;94908.50;5031001;28;20447;-72
2021/09/20 07:11:59;;;;;;;32.67;20.57;;;;;;;16.92;75.32;94900.47;5031518;28;20438;-73
2021/09/20 07:14:27;;;;;;;34.97;22.63;;;;;;;17.11;75.39;94924.97;5031677;28;20497;-73
2021/09/20 07:16:55;;;;;;;45.20;23.03;;;;;;;17.09;74.92;94905.97;5031696;28;20781;-74
2021/09/20 07:19:22;;;;;;;32.97;23.10;;;;;;;16.91;76.22;94917.44;5031423;28;20954;-74
2021/09/20 07:21:48;;;;;;;35.03;22.57;;;;;;;17.17;75.29;94915.84;5031163;28;21071;-72
2021/09/20 07:24:16;;;;;;;36.67;23.33;;;;;;;17.26;75.28;94909.88;5031661;28;20479;-71
2021/09/20 07:26:43;;;;;;;38.07;22.77;;;;;;;17.30;74.67;94910.84;5031291;28;20876;-74
2021/09/20 07:29:10;;;;;;;34.00;22.17;;;;;;;17.50;74.03;94913.09;5030682;28;20802;-72
2021/09/20 07:31:37;;;;;;;36.20;22.47;;;;;;;17.41;74.73;94905.00;5026501;28;20506;-73
2021/09/20 07:34:04;;;;;;;42.00;25.33;;;;;;;17.36;75.41;94905.13;5022663;28;20517;-75
2021/09/20 07:36:31;;;;;;;35.70;24.07;;;;;;;17.73;73.77;94912.06;5031586;28;20765;-75
2021/09/20 07:38:58;;;;;;;38.67;25.27;;;;;;;17.72;73.35;94894.56;5033725;28;20455;-72
2021/09/20 07:41:26;;;;;;;41.57;24.30;;;;;;;17.63;73.57;94891.84;5035678;28;20448;-72
2021/09/20 07:43:53;;;;;;;45.37;26.30;;;;;;;17.91;73.44;94913.75;5032083;28;20483;-73
2021/09/20 07:46:22;;;;;;;55.80;25.00;;;;;;;17.89;73.02;94907.97;5030997;28;20513;-73
2021/09/20 07:48:51;;;;;;;46.70;25.07;;;;;;;17.71;73.85;94914.22;5031234;28;20502;-74
2021/09/20 07:51:19;;;;;;;44.07;24.43;;;;;;;17.99;73.64;94899.78;5030236;28;20511;-72
2021/09/20 07:53:45;;;;;;;36.03;24.97;;;;;;;17.94;73.68;94903.34;5030932;28;20448;-77
2021/09/20 07:56:13;;;;;;;47.77;31.27;;;;;;;17.87;73.30;94897.66;5024208;28;20440;-73
2021/09/20 07:58:39;;;;;;;53.87;31.83;;;;;;;17.69;73.68;94881.94;5011295;28;20821;-73
2021/09/20 08:01:06;;;;;;;50.60;36.63;;;;;;;17.89;73.63;94869.00;5024104;28;20452;-72
2021/09/20 08:03:34;;;;;;;50.50;37.73;;;;;;;18.01;74.04;94887.03;5022726;28;20507;-74
2021/09/20 08:06:01;;;;;;;45.87;31.13;;;;;;;18.01;73.95;94881.72;5029432;28;20766;-74
2021/09/20 08:08:28;;;;;;;51.73;28.43;;;;;;;18.20;73.22;94867.19;5030639;28;20448;-73
2021/09/20 08:10:56;;;;;;;40.00;26.03;;;;;;;18.19;73.15;94864.84;5029613;28;20606;-72
2021/09/20 08:13:23;;;;;;;35.13;21.53;;;;;;;18.42;72.30;94871.69;5030291;28;20436;-73
2021/09/20 08:15:50;;;;;;;34.23;21.37;;;;;;;18.55;71.41;94885.97;5030176;28;20440;-77
2021/09/20 08:18:17;;;;;;;27.87;20.10;;;;;;;18.71;70.92;94881.81;5030117;28;20436;-75
2021/09/20 08:20:46;;;;;;;25.37;19.30;;;;;;;18.82;70.47;94875.94;5030552;28;20807;-75
2021/09/20 08:23:13;;;;;;;26.53;17.53;;;;;;;18.77;70.67;94857.50;5029542;28;20488;-72
2021/09/20 08:25:42;;;;;;;23.37;17.13;;;;;;;18.90;70.50;94872.50;5030167;28;21202;-72
2021/09/20 08:28:09;;;;;;;25.83;18.63;;;;;;;18.75;70.45;94880.13;5030113;28;20445;-73
2021/09/20 08:30:37;;;;;;;25.13;16.70;;;;;;;18.84;70.18;94873.75;5030312;28;20448;-74
2021/09/20 08:33:04;;;;;;;24.50;16.27;;;;;;;18.97;70.43;94866.78;5029756;28;20978;-71
2021/09/20 08:35:31;;;;;;;21.37;13.90;;;;;;;19.19;69.22;94872.78;5030845;28;20444;-70
2021/09/20 08:37:58;;;;;;;21.13;15.53;;;;;;;19.01;68.03;94863.19;5029944;28;20193;-71
2021/09/20 08:40:27;;;;;;;20.80;15.63;;;;;;;19.13;67.71;94855.41;5030065;28;21008;-72
2021/09/20 08:42:56;;;;;;;23.07;16.73;;;;;;;19.23;68.54;94844.47;5022889;28;20448;-75
2021/09/20 08:45:26;;;;;;;22.37;16.50;;;;;;;19.06;68.48;94849.78;5023619;28;20415;-70
2021/09/20 08:47:55;;;;;;;22.90;16.97;;;;;;;18.96;69.13;94839.44;5024115;28;20453;-74
2021/09/20 08:50:26;;;;;;;22.60;17.03;;;;;;;19.01;68.08;94826.00;5022192;28;20451;-73
2021/09/20 08:52:54;;;;;;;25.27;17.60;;;;;;;19.03;67.58;94823.81;5024267;28;20197;-73
2021/09/20 08:55:22;;;;;;;25.63;16.60;;;;;;;19.09;68.65;94830.56;5021761;28;20197;-73
2021/09/20 08:57:49;;;;;;;31.00;18.03;;;;;;;19.25;68.55;94846.06;5015440;28;20201;-74
2021/09/20 09:00:17;;;;;;;21.70;17.13;;;;;;;19.38;67.23;94821.25;5029943;28;20737;-72
2021/09/20 09:02:44;;;;;;;27.27;17.73;;;;;;;19.53;66.91;94820.78;5018519;28;20447;-72
2021/09/20 09:05:23;;;;;;;22.70;16.33;;;;;;;19.77;65.18;94810.44;5029916;28;20378;-72
2021/09/20 09:08:09;;;;;;;29.67;17.00;;;;;;;19.81;64.98;94816.72;5031658;28;20443;-75
2021/09/20 09:10:38;;;;;;;21.63;14.90;;;;;;;20.20;63.13;94803.19;5033762;28;20444;-72
2021/09/20 09:13:06;;;;;;;22.73;15.20;;;;;;;20.62;64.23;94799.59;5013571;28;21488;-73
2021/09/20 09:15:35;;;;;;;20.23;15.07;;;;;;;20.80;63.53;94803.00;5026889;28;20685;-70
2021/09/20 09:18:05;;;;;;;22.87;14.80;;;;;;;20.76;62.92;94802.06;5033142;28;20189;-74
2021/09/20 09:20:36;;;;;;;20.20;11.77;;;;;;;20.64;63.46;94807.28;5033884;28;20201;-73
2021/09/20 09:23:13;;;;;;;16.00;11.23;;;;;;;20.88;62.70;94813.59;5014610;28;20672;-74
2021/09/20 09:25:43;;;;;;;17.80;11.80;;;;;;;20.93;63.35;94802.75;5014059;28;20197;-72
2021/09/20 09:28:20;;;;;;;20.30;10.73;;;;;;;21.44;62.21;94819.56;5013695;28;20208;-73
2021/09/20 09:31:02;;;;;;;15.73;11.73;;;;;;;21.33;60.71;94803.16;5028887;28;20258;-72
2021/09/20 09:33:38;;;;;;;16.20;11.80;;;;;;;21.48;61.87;94815.13;5021574;28;20312;-72
2021/09/20 09:36:10;;;;;;;15.63;11.57;;;;;;;21.63;61.82;94806.53;5021446;28;20260;-71
2021/09/20 09:38:57;;;;;;;16.63;12.00;;;;;;;21.78;61.64;94809.41;5035871;28;20197;-72
2021/09/20 09:41:33;;;;;;;18.43;12.53;;;;;;;21.79;61.64;94804.84;5037044;28;20739;-71
2021/09/20 09:44:05;;;;;;;16.47;11.50;;;;;;;21.55;61.05;94799.41;5019463;28;20217;-73
2021/09/20 09:46:45;;;;;;;19.93;11.90;;;;;;;21.42;62.09;94805.78;5021353;28;20251;-71
2021/09/20 09:49:13;;;;;;;14.13;10.73;;;;;;;21.49;62.59;94822.03;5033143;28;20299;-72
2021/09/20 09:52:10;;;;;;;16.63;11.47;;;;;;;21.55;62.11;94826.06;5033069;28;20197;-74
2021/09/20 09:54:41;;;;;;;13.63;10.50;;;;;;;21.50;61.16;94819.03;5015551;28;20224;-71
2021/09/20 09:57:21;;;;;;;16.57;9.93;;;;;;;21.78;61.34;94829.94;5021069;28;20189;-70
2021/09/20 09:59:56;;;;;;;17.63;11.83;;;;;;;22.06;61.33;94809.66;5026913;28;20202;-75
2021/09/20 10:02:37;;;;;;;16.67;11.07;;;;;;;22.05;58.99;94805.41;5025100;28;20220;-70
2021/09/20 10:05:14;;;;;;;16.60;10.63;;;;;;;22.34;60.28;94799.91;5033053;28;20252;-71
2021/09/20 10:07:43;;;;;;;14.53;10.30;;;;;;;22.88;58.21;94793.31;5032407;28;20301;-73
2021/09/20 10:10:14;;;;;;;20.10;10.50;;;;;;;22.79;57.60;94784.63;5032960;28;20216;-75
2021/09/20 10:12:43;;;;;;;14.33;8.53;;;;;;;22.94;57.06;94786.63;5032072;28;20189;-72
2021/09/20 10:15:13;;;;;;;12.77;7.57;;;;;;;23.19;55.64;94797.31;5033020;28;20197;-74
2021/09/20 10:17:41;;;;;;;10.63;7.67;;;;;;;23.26;54.87;94792.94;5018323;28;20201;-72
2021/09/20 10:20:16;;;;;;;9.57;6.50;;;;;;;23.19;53.32;94786.59;5032045;28;20223;-72
2021/09/20 10:22:43;;;;;;;14.90;7.13;;;;;;;23.57;52.96;94784.31;5031648;28;20208;-72
2021/09/20 10:25:12;;;;;;;11.50;6.80;;;;;;;23.62;53.75;94784.06;5032567;28;20233;-70
2021/09/20 10:27:40;;;;;;;12.87;6.87;;;;;;;23.83;53.75;94782.00;5031706;28;20686;-73
2021/09/20 10:30:17;;;;;;;16.90;7.53;;;;;;;23.40;54.02;94755.16;5032372;28;20189;-71
2021/09/20 10:32:50;;;;;;;16.67;7.27;;;;;;;23.61;53.98;94777.19;5031350;28;20197;-72
2021/09/20 10:35:20;;;;;;;15.73;7.00;;;;;;;23.73;54.16;94764.53;5032949;28;20208;-74
2021/09/20 10:37:47;;;;;;;15.17;7.63;;;;;;;23.96;52.63;94762.84;5031682;28;20207;-71
2021/09/20 10:40:15;;;;;;;14.43;7.10;;;;;;;24.21;53.59;94747.47;5018196;28;20202;-73
2021/09/20 10:42:46;;;;;;;13.83;7.67;;;;;;;24.27;53.68;94740.72;5031589;28;20197;-73
2021/09/20 10:45:43;;;;;;;13.87;7.23;;;;;;;24.29;52.78;94733.13;5032406;28;20229;-72
2021/09/20 10:48:20;;;;;;;13.17;7.23;;;;;;;24.55;51.72;94725.34;5019339;28;20201;-71
2021/09/20 10:51:11;;;;;;;11.57;7.47;;;;;;;24.79;52.26;94730.56;5016212;28;20197;-73
2021/09/20 10:53:40;;;;;;;15.87;7.70;;;;;;;24.64;52.66;94701.84;5019399;28;20295;-74
2021/09/20 10:56:07;;;;;;;12.43;6.80;;;;;;;25.27;52.19;94731.22;5016801;28;20193;-70
2021/09/20 10:58:54;;;;;;;11.53;6.83;;;;;;;25.06;50.45;94729.63;5022247;28;20225;-68
2021/09/20 11:01:24;;;;;;;12.83;7.53;;;;;;;24.96;49.05;94737.44;5024751;28;20220;-70
2021/09/20 11:03:54;;;;;;;12.23;7.30;;;;;;;25.16;51.19;94732.88;5029128;28;20207;-69
2021/09/20 11:06:24;;;;;;;20.03;7.90;;;;;;;25.41;50.72;94726.16;5028424;28;20205;-68
2021/09/20 11:09:02;;;;;;;14.70;7.67;;;;;;;25.43;49.29;94713.19;5029397;28;20209;-70
2021/09/20 11:11:39;;;;;;;17.13;6.97;;;;;;;25.86;50.45;94712.84;5029692;28;20193;-69
2021/09/20 11:14:16;;;;;;;12.97;7.87;;;;;;;26.11;50.64;94708.75;5031336;28;20193;-69
2021/09/20 11:16:52;;;;;;;14.40;7.53;;;;;;;26.24;49.35;94704.75;5030966;28;20205;-70
2021/09/20 11:19:29;;;;;;;21.23;8.27;;;;;;;26.24;48.80;94682.50;5031779;28;20212;-71
2021/09/20 11:22:11;;;;;;;14.40;7.90;;;;;;;26.54;47.98;94678.75;5031077;28;20649;-73
2021/09/20 11:24:39;;;;;;;18.73;8.20;;;;;;;26.53;47.29;94679.88;5031256;28;20221;-70
2021/09/20 11:27:14;;;;;;;17.73;8.20;;;;;;;26.64;46.33;94677.38;5032084;28;20615;-72